CMB836 Details

Departure: Kuwait International Airport (OKBK)
Arrival: Ramstein Air Force Base (ETAR)
Route: RALKA3F RALKA G795 TASMI L602 ALPET UM860 SRT UG8 ULSAB UT334 INB UL746 ODERO T86 MATEL T746 NEPOT L746 EVRIK L850 BUDOP LAMSI L604 SULUS L984 FFM
Notes: USTRANSCOM CONTRACT FLIGHT


Current Weather Information
OKBK 212300Z 35003KT CAVOK 29/11 Q1010 NOSIG
ETAR 212256Z AUTO 00000KT 8000 BR SCT085 11/10 A3003 RMK AO2 RAB01E11 SLP173 P0000 T01050103 401300105 $